createdAt,value
2019-05-07T00:03:08.057Z,7.45
2019-05-07T00:05:39.030Z,7.13
2019-05-07T00:08:08.390Z,7.25
2019-05-07T00:10:37.714Z,7.00
2019-05-07T00:13:19.687Z,6.87
2019-05-07T00:15:49.009Z,6.92
2019-05-07T00:18:18.347Z,6.85
2019-05-07T00:20:47.695Z,6.67
2019-05-07T00:23:17.015Z,6.62
2019-05-07T00:25:58.684Z,6.56
2019-05-07T00:28:28.029Z,6.47
2019-05-07T00:30:57.374Z,6.41
2019-05-07T00:33:26.719Z,6.42
2019-05-07T00:39:45.070Z,5.96
2019-05-07T00:45:42.626Z,6.35
2019-05-07T00:51:45.786Z,6.28
2019-05-07T00:54:15.194Z,6.17
2019-05-07T00:56:44.545Z,5.91
2019-05-07T00:59:13.891Z,6.07
2019-05-07T01:01:43.418Z,6.16
2019-05-07T01:04:12.769Z,6.17
2019-05-07T01:06:42.491Z,6.09
2019-05-07T01:09:18.365Z,5.88
2019-05-07T01:11:47.707Z,6.09
2019-05-07T01:14:17.043Z,5.91
2019-05-07T01:16:52.963Z,5.77
2019-05-07T01:19:28.656Z,5.65
2019-05-07T01:21:58.014Z,5.78
2019-05-07T01:24:27.356Z,5.83
2019-05-07T01:26:56.697Z,5.74
2019-05-07T01:29:26.380Z,5.68
2019-05-07T01:32:14.896Z,5.66
2019-05-07T01:35:03.374Z,5.49
2019-05-07T01:37:32.728Z,5.52
2019-05-07T01:40:03.094Z,5.64
2019-05-07T01:42:52.995Z,5.46
2019-05-07T01:45:42.232Z,5.59
2019-05-07T01:48:08.551Z,5.35
2019-05-07T01:50:38.056Z,5.43
2019-05-07T01:53:07.395Z,5.39
2019-05-07T01:55:36.748Z,5.35
2019-05-07T01:58:06.079Z,5.29
2019-05-07T02:00:35.650Z,5.37
2019-05-07T02:03:24.486Z,5.21
2019-05-07T02:06:13.260Z,5.13
2019-05-07T02:09:02.357Z,5.23
2019-05-07T02:11:52.767Z,5.05
2019-05-07T02:14:42.259Z,5.17
2019-05-07T02:17:17.749Z,4.99
2019-05-07T02:19:47.087Z,5.06
2019-05-07T02:22:16.516Z,5.14
2019-05-07T02:24:45.868Z,5.11
2019-05-07T02:27:15.218Z,5.20
2019-05-07T02:29:44.555Z,5.18
2019-05-07T02:32:13.909Z,5.19
2019-05-07T02:34:44.159Z,5.18
2019-05-07T02:40:44.133Z,5.01
2019-05-07T02:43:14.222Z,5.01
2019-05-07T02:46:25.575Z,5.03
2019-05-07T02:49:05.511Z,5.00
2019-05-07T02:51:53.988Z,4.93
2019-05-07T02:57:23.812Z,4.95
2019-05-07T03:00:04.022Z,4.96
2019-05-07T03:02:36.838Z,4.97
2019-05-07T03:08:08.514Z,5.05
2019-05-07T03:10:37.843Z,5.09
2019-05-07T03:13:07.184Z,5.08
2019-05-07T03:15:36.548Z,5.11
2019-05-07T03:18:06.113Z,5.24
2019-05-07T03:21:15.297Z,5.36
2019-05-07T03:24:04.010Z,5.32
2019-05-07T03:32:28.726Z,5.34
2019-05-07T03:35:17.289Z,5.46
2019-05-07T03:37:46.689Z,5.53
2019-05-07T03:40:16.376Z,5.31
2019-05-07T03:42:45.715Z,5.34
2019-05-07T03:50:52.909Z,5.48
2019-05-07T03:53:43.520Z,5.66
2019-05-07T03:56:18.068Z,5.53
2019-05-07T03:58:47.412Z,5.61
2019-05-07T04:01:16.762Z,5.44
2019-05-07T04:03:46.117Z,5.68
2019-05-07T04:06:15.450Z,5.70
2019-05-07T04:08:44.792Z,5.85
2019-05-07T04:11:14.307Z,5.82
2019-05-07T04:13:44.248Z,5.82
2019-05-07T04:16:20.230Z,5.95
2019-05-07T04:18:52.819Z,5.96
2019-05-07T04:21:43.302Z,5.90
2019-05-07T04:29:53.402Z,5.79
2019-05-07T04:36:14.217Z,5.98
2019-05-07T04:38:48.490Z,6.04
2019-05-07T04:41:17.843Z,6.03
2019-05-07T04:44:06.521Z,6.01
2019-05-07T04:46:35.874Z,6.03
2019-05-07T04:49:05.284Z,6.00
2019-05-07T04:51:53.750Z,5.96
2019-05-07T04:54:23.830Z,6.10
2019-05-07T04:56:59.798Z,6.11
2019-05-07T04:59:29.141Z,6.10
2019-05-07T05:02:00.142Z,6.19
2019-05-07T05:04:34.045Z,6.22
2019-05-07T05:07:02.639Z,6.35
2019-05-07T05:09:32.881Z,6.42
2019-05-07T05:12:02.915Z,6.46
2019-05-07T05:14:33.869Z,6.51
2019-05-07T05:17:03.516Z,6.56
2019-05-07T05:19:32.796Z,6.68
2019-05-07T05:22:03.793Z,6.80
2019-05-07T05:24:34.700Z,6.91
2019-05-07T05:27:04.119Z,6.99
2019-05-07T05:29:35.238Z,7.02
2019-05-07T05:32:04.853Z,7.01
2019-05-07T05:34:34.180Z,7.04
2019-05-07T05:37:03.510Z,7.11
2019-05-07T05:39:32.872Z,7.23
2019-05-07T05:42:12.827Z,7.20
2019-05-07T05:44:42.187Z,7.24
2019-05-07T05:47:12.027Z,7.14
2019-05-07T05:49:42.866Z,7.32
2019-05-07T05:52:13.925Z,7.62
2019-05-07T05:54:44.901Z,7.66
2019-05-07T05:57:18.546Z,7.78
2019-05-07T05:59:55.670Z,8.02
2019-05-07T06:02:44.034Z,8.18
2019-05-07T06:05:34.380Z,7.97
2019-05-07T06:08:20.606Z,8.24
2019-05-07T06:10:51.954Z,8.62
2019-05-07T06:13:23.181Z,8.27
2019-05-07T06:15:56.919Z,8.88
2019-05-07T06:18:42.940Z,9.02
2019-05-07T06:21:14.556Z,9.13
2019-05-07T06:23:57.377Z,8.95
2019-05-07T06:26:26.765Z,8.77
2019-05-07T06:28:56.042Z,8.57
2019-05-07T06:31:25.434Z,8.73
2019-05-07T06:33:54.955Z,8.77
2019-05-07T06:36:24.283Z,9.09
2019-05-07T06:38:55.261Z,9.17
2019-05-07T06:41:42.445Z,8.96
2019-05-07T06:44:13.421Z,9.43
2019-05-07T06:46:42.750Z,9.36
2019-05-07T06:49:12.699Z,9.49
2019-05-07T06:51:42.169Z,9.36
2019-05-07T06:54:12.990Z,9.41
2019-05-07T06:56:42.694Z,9.14
2019-05-07T06:59:14.203Z,9.48
2019-05-07T07:01:47.652Z,9.46
2019-05-07T07:04:18.615Z,9.24
2019-05-07T07:06:49.601Z,9.66
2019-05-07T07:09:26.244Z,9.54
2019-05-07T07:12:03.229Z,10.06
2019-05-07T07:14:33.303Z,9.89
2019-05-07T07:17:02.706Z,10.30
2019-05-07T07:19:34.202Z,9.74
2019-05-07T07:22:03.067Z,9.85
2019-05-07T07:24:32.992Z,9.90
2019-05-07T07:27:02.535Z,10.34
2019-05-07T07:29:44.980Z,10.46
2019-05-07T07:32:15.174Z,10.28
2019-05-07T07:34:49.237Z,10.62
2019-05-07T07:37:23.184Z,10.48
2019-05-07T07:39:54.160Z,10.13
2019-05-07T07:42:23.504Z,10.67
2019-05-07T07:44:54.804Z,10.75
2019-05-07T07:47:24.150Z,10.89
2019-05-07T07:49:53.484Z,11.00
2019-05-07T07:52:23.053Z,11.18
2019-05-07T07:54:52.995Z,10.98
2019-05-07T07:57:42.775Z,10.79
2019-05-07T08:00:32.866Z,11.02
2019-05-07T08:03:02.997Z,10.84
2019-05-07T08:05:32.621Z,10.85
2019-05-07T08:08:02.370Z,10.83
2019-05-07T08:10:32.658Z,11.25
2019-05-07T08:13:02.292Z,11.39
2019-05-07T08:15:33.047Z,11.56
2019-05-07T08:18:02.948Z,11.40
2019-05-07T08:20:32.834Z,11.36
2019-05-07T08:23:02.895Z,11.37
2019-05-07T08:25:34.024Z,11.26
2019-05-07T08:28:03.358Z,10.95
2019-05-07T08:30:33.066Z,10.95
2019-05-07T08:33:04.056Z,11.17
2019-05-07T08:35:34.965Z,11.41
2019-05-07T08:38:04.304Z,11.75
2019-05-07T08:40:33.707Z,12.09
2019-05-07T08:43:03.360Z,11.97
2019-05-07T08:45:52.239Z,11.95
2019-05-07T08:48:34.392Z,12.07
2019-05-07T08:51:03.723Z,12.73
2019-05-07T08:53:33.062Z,12.32
2019-05-07T08:56:03.281Z,12.02
2019-05-07T08:58:32.617Z,11.48
2019-05-07T09:01:03.114Z,11.13
2019-05-07T09:03:44.793Z,11.55
2019-05-07T09:06:14.601Z,11.22
2019-05-07T09:08:43.910Z,11.48
2019-05-07T09:11:13.490Z,11.34
2019-05-07T09:13:42.870Z,11.56
2019-05-07T09:16:12.885Z,11.58
2019-05-07T09:18:42.903Z,11.31
2019-05-07T09:21:12.810Z,11.17
2019-05-07T09:23:42.497Z,11.19
2019-05-07T09:26:13.617Z,11.07
2019-05-07T09:28:47.839Z,11.31
2019-05-07T09:31:19.076Z,11.52
2019-05-07T09:33:52.124Z,11.43
2019-05-07T09:36:22.885Z,11.72
2019-05-07T09:38:56.767Z,11.61
2019-05-07T09:41:28.669Z,11.44
2019-05-07T09:43:58.796Z,11.66
2019-05-07T09:46:28.273Z,11.57
2019-05-07T09:48:57.611Z,11.48
2019-05-07T09:51:26.873Z,11.87
2019-05-07T09:53:56.218Z,12.62
2019-05-07T09:56:25.547Z,12.23
2019-05-07T09:58:55.331Z,12.53
2019-05-07T10:01:24.693Z,12.46
2019-05-07T10:03:54.019Z,13.15
2019-05-07T10:06:23.439Z,13.51
2019-05-07T10:08:52.857Z,13.68
2019-05-07T10:11:39.161Z,14.05
2019-05-07T10:14:14.486Z,13.50
2019-05-07T10:16:48.042Z,13.61
2019-05-07T10:19:17.445Z,13.61
2019-05-07T10:21:46.841Z,13.52
2019-05-07T10:24:16.523Z,14.25
2019-05-07T10:26:46.388Z,13.55
2019-05-07T10:29:15.800Z,13.15
2019-05-07T10:31:45.406Z,13.25
2019-05-07T10:34:14.736Z,12.78
2019-05-07T10:36:44.101Z,12.58
2019-05-07T10:39:13.492Z,12.56
2019-05-07T10:41:42.892Z,12.23
2019-05-07T10:44:13.305Z,12.13
2019-05-07T10:47:01.989Z,12.26
2019-05-07T10:49:36.151Z,12.38
2019-05-07T10:52:05.552Z,12.41
2019-05-07T10:54:34.883Z,12.43
2019-05-07T10:57:04.230Z,12.33
2019-05-07T10:59:33.590Z,12.19
2019-05-07T11:04:45.856Z,12.34
2019-05-07T11:07:33.505Z,13.06
2019-05-07T11:13:29.788Z,14.18
2019-05-07T11:16:13.271Z,14.32
2019-05-07T11:21:42.723Z,14.64
2019-05-07T11:24:32.088Z,14.64
2019-05-07T11:27:22.541Z,14.08
2019-05-07T11:30:17.464Z,14.38
2019-05-07T11:32:46.880Z,14.38
2019-05-07T11:35:28.639Z,14.28
2019-05-07T11:38:18.816Z,14.28
2019-05-07T11:40:42.767Z,14.28
2019-05-07T11:43:40.419Z,13.80
2019-05-07T11:46:26.699Z,13.92
2019-05-07T11:49:15.156Z,13.92
2019-05-07T11:54:53.596Z,13.96
2019-05-07T11:57:22.934Z,13.72
2019-05-07T11:59:54.350Z,13.66
2019-05-07T12:02:23.374Z,13.91
2019-05-07T12:04:52.809Z,13.94
2019-05-07T12:07:22.455Z,13.94
2019-05-07T12:09:52.642Z,13.99
2019-05-07T12:12:22.278Z,14.28
2019-05-07T12:14:51.949Z,14.15
2019-05-07T12:17:22.376Z,14.26
2019-05-07T12:19:52.702Z,13.44
2019-05-07T12:22:42.320Z,13.86
2019-05-07T12:25:12.151Z,13.86
2019-05-07T12:27:41.660Z,14.02
2019-05-07T12:30:12.987Z,14.59
2019-05-07T12:33:02.348Z,14.19
2019-05-07T12:35:31.837Z,13.63
2019-05-07T12:38:02.058Z,13.77
2019-05-07T12:40:32.586Z,14.27
2019-05-07T12:43:02.135Z,14.79
2019-05-07T12:45:31.489Z,14.54
2019-05-07T12:48:02.384Z,14.52
2019-05-07T12:50:32.356Z,14.39
2019-05-07T12:53:12.603Z,14.39
2019-05-07T12:55:52.619Z,14.69
2019-05-07T12:58:22.021Z,14.30
2019-05-07T13:00:53.078Z,14.63
2019-05-07T13:03:42.806Z,14.63
2019-05-07T13:06:12.252Z,14.41
2019-05-07T13:08:42.075Z,15.05
2019-05-07T13:11:13.247Z,15.43
2019-05-07T13:13:42.644Z,15.43
2019-05-07T13:16:12.796Z,14.83
2019-05-07T13:18:42.398Z,14.64
2019-05-07T13:21:12.038Z,14.59
2019-05-07T13:23:42.151Z,14.59
2019-05-07T13:26:11.966Z,14.65
2019-05-07T13:28:41.987Z,14.63
2019-05-07T13:31:12.610Z,14.89
2019-05-07T13:33:44.012Z,14.74
2019-05-07T13:36:13.912Z,14.74
2019-05-07T13:38:47.675Z,14.90
2019-05-07T13:41:18.814Z,14.71
2019-05-07T13:44:05.380Z,14.71
2019-05-07T13:46:39.112Z,15.02
2019-05-07T13:49:08.788Z,14.64
2019-05-07T13:51:38.756Z,14.42
2019-05-07T13:54:08.173Z,14.63
2019-05-07T13:56:37.648Z,14.69
2019-05-07T13:59:07.316Z,15.28
2019-05-07T14:01:41.048Z,15.18
2019-05-07T14:04:12.746Z,14.65
2019-05-07T14:06:42.987Z,14.68
2019-05-07T14:09:15.547Z,14.91
2019-05-07T14:11:45.058Z,14.68
2019-05-07T14:14:14.379Z,14.68
2019-05-07T14:16:44.996Z,14.49
2019-05-07T14:19:14.546Z,14.36
2019-05-07T14:21:43.952Z,14.36
2019-05-07T14:24:14.892Z,14.66
2019-05-07T14:26:44.279Z,14.72
2019-05-07T14:29:13.632Z,14.53
2019-05-07T14:31:42.976Z,14.53
2019-05-07T14:34:13.955Z,14.78
2019-05-07T14:36:45.000Z,14.78
2019-05-07T14:39:14.368Z,15.38
2019-05-07T14:41:43.699Z,15.38
2019-05-07T14:44:14.689Z,15.75
2019-05-07T14:46:50.866Z,15.52
2019-05-07T14:49:15.413Z,15.38
2019-05-07T14:51:44.886Z,15.70
2019-05-07T14:54:14.470Z,15.45
2019-05-07T14:56:43.882Z,15.45
2019-05-07T14:59:13.366Z,15.62
2019-05-07T15:01:43.058Z,15.52
2019-05-07T15:04:12.939Z,15.20
2019-05-07T15:06:42.402Z,15.20
2019-05-07T15:09:12.212Z,15.23
2019-05-07T15:11:42.533Z,14.97
2019-05-07T15:14:12.220Z,15.30
2019-05-07T15:16:42.626Z,15.35
2019-05-07T15:19:12.594Z,14.80
2019-05-07T15:21:42.765Z,16.02
2019-05-07T15:24:14.301Z,16.15
2019-05-07T15:26:43.711Z,16.15
2019-05-07T15:29:14.781Z,16.17
2019-05-07T15:32:00.778Z,16.61
2019-05-07T15:34:30.113Z,16.31
2019-05-07T15:37:01.556Z,15.97
2019-05-07T15:39:32.638Z,16.44
2019-05-07T15:42:02.253Z,16.19
2019-05-07T15:44:31.681Z,16.00
2019-05-07T15:47:02.716Z,16.29
2019-05-07T15:49:32.348Z,16.28
2019-05-07T15:52:03.383Z,15.87
2019-05-07T15:54:32.984Z,16.19
2019-05-07T15:57:03.985Z,16.30
2019-05-07T15:59:33.295Z,16.31
2019-05-07T16:02:04.277Z,16.34
2019-05-07T16:04:33.688Z,16.26
2019-05-07T16:07:05.130Z,17.09
2019-05-07T16:09:43.540Z,16.88
2019-05-07T16:12:14.646Z,16.55
2019-05-07T16:14:43.996Z,16.20
2019-05-07T16:17:14.999Z,16.15
2019-05-07T16:19:44.339Z,15.52
2019-05-07T16:22:15.818Z,15.99
2019-05-07T16:24:45.172Z,15.51
2019-05-07T16:27:14.502Z,15.64
2019-05-07T16:29:43.843Z,15.22
2019-05-07T16:32:13.180Z,15.45
2019-05-07T16:34:43.029Z,15.13
2019-05-07T16:37:12.453Z,15.16
2019-05-07T16:39:42.235Z,15.91
2019-05-07T16:42:11.628Z,15.35
2019-05-07T16:44:41.740Z,15.59
2019-05-07T16:47:12.183Z,15.67
2019-05-07T16:49:42.490Z,15.89
2019-05-07T16:52:12.143Z,15.47
2019-05-07T16:54:44.884Z,15.31
2019-05-07T16:57:31.793Z,15.08
2019-05-07T17:00:02.849Z,14.93
2019-05-07T17:02:37.095Z,14.91
2019-05-07T17:05:09.408Z,15.07
2019-05-07T17:07:42.259Z,14.78
2019-05-07T17:10:11.816Z,14.72
2019-05-07T17:12:42.730Z,14.72
2019-05-07T17:15:12.468Z,14.67
2019-05-07T17:17:42.804Z,14.41
2019-05-07T17:20:12.830Z,14.26
2019-05-07T17:22:42.726Z,14.45
2019-05-07T17:25:30.122Z,14.45
2019-05-07T17:27:59.518Z,14.32
2019-05-07T17:30:28.879Z,14.25
2019-05-07T17:32:58.425Z,14.25
2019-05-07T17:35:28.039Z,14.12
2019-05-07T17:38:06.488Z,14.12
2019-05-07T17:40:28.511Z,14.10
2019-05-07T17:42:57.870Z,13.93
2019-05-07T17:45:27.202Z,13.93
2019-05-07T17:47:56.614Z,13.90
2019-05-07T17:50:27.590Z,13.72
2019-05-07T17:52:56.929Z,13.47
2019-05-07T17:55:26.277Z,13.47
2019-05-07T17:57:55.607Z,13.33
2019-05-07T18:00:25.075Z,13.40
2019-05-07T18:03:13.114Z,13.32
2019-05-07T18:05:42.640Z,13.32
2019-05-07T18:08:12.714Z,13.19
2019-05-07T18:10:42.504Z,13.21
2019-05-07T18:13:12.025Z,13.01
2019-05-07T18:15:42.791Z,12.91
2019-05-07T18:18:12.936Z,12.81
2019-05-07T18:20:42.379Z,12.94
2019-05-07T18:23:16.647Z,12.98
2019-05-07T18:25:42.994Z,12.83
2019-05-07T18:28:12.893Z,12.70
2019-05-07T18:30:42.229Z,12.58
2019-05-07T18:33:16.567Z,12.48
2019-05-07T18:35:47.543Z,12.57
2019-05-07T18:38:16.878Z,12.42
2019-05-07T18:40:46.635Z,12.38
2019-05-07T18:43:15.968Z,12.30
2019-05-07T18:45:45.316Z,12.22
2019-05-07T18:48:14.647Z,12.23
2019-05-07T18:50:44.021Z,12.11
2019-05-07T18:53:18.099Z,11.96
2019-05-07T18:55:51.603Z,11.96
2019-05-07T18:58:22.607Z,11.91
2019-05-07T19:00:54.905Z,11.89
2019-05-07T19:03:28.799Z,11.87
2019-05-07T19:06:02.884Z,11.88
2019-05-07T19:08:35.725Z,11.91
2019-05-07T19:11:05.983Z,11.96
2019-05-07T19:13:37.561Z,11.83
2019-05-07T19:16:07.824Z,11.74
2019-05-07T19:18:37.170Z,11.68
2019-05-07T19:21:06.949Z,11.54
2019-05-07T19:23:36.335Z,11.43
2019-05-07T19:26:06.437Z,11.39
2019-05-07T19:28:36.252Z,11.46
2019-05-07T19:31:05.905Z,11.59
2019-05-07T19:33:35.316Z,11.48
2019-05-07T19:36:04.766Z,11.34
2019-05-07T19:38:34.092Z,11.31
2019-05-07T19:41:03.466Z,11.39
2019-05-07T19:43:35.974Z,11.54
2019-05-07T19:46:03.844Z,11.56
2019-05-07T19:48:33.183Z,11.67
2019-05-07T19:51:03.049Z,11.91
2019-05-07T19:53:32.821Z,11.99
2019-05-07T19:56:04.170Z,12.02
2019-05-07T19:58:34.023Z,11.94
2019-05-07T20:01:04.705Z,11.83
2019-05-07T20:03:34.104Z,11.86
2019-05-07T20:06:04.575Z,11.92
2019-05-07T20:08:34.057Z,11.69
2019-05-07T20:11:05.036Z,11.66
2019-05-07T20:13:34.374Z,11.58
2019-05-07T20:16:14.181Z,11.45
2019-05-07T20:18:43.523Z,11.54
2019-05-07T20:21:12.912Z,11.56
2019-05-07T20:23:43.235Z,11.58
2019-05-07T20:26:12.860Z,11.59
2019-05-07T20:28:43.717Z,11.58
2019-05-07T20:31:13.351Z,11.49
2019-05-07T20:33:42.665Z,11.40
2019-05-07T20:36:12.069Z,11.40
2019-05-07T20:38:42.739Z,11.35
2019-05-07T20:41:13.690Z,11.20
2019-05-07T20:43:43.273Z,11.07
2019-05-07T20:46:12.604Z,10.69
2019-05-07T20:48:42.467Z,10.59
2019-05-07T20:51:12.527Z,10.45
2019-05-07T20:54:00.454Z,10.35
2019-05-07T20:56:34.176Z,10.25
2019-05-07T20:59:03.853Z,10.19
2019-05-07T21:01:33.213Z,10.29
2019-05-07T21:04:02.541Z,10.11
2019-05-07T21:06:32.424Z,9.94
2019-05-07T21:09:01.874Z,9.87
2019-05-07T21:11:32.371Z,10.08
2019-05-07T21:14:03.252Z,9.99
2019-05-07T21:16:33.171Z,9.90
2019-05-07T21:19:02.521Z,9.90
2019-05-07T21:21:32.765Z,10.15
2019-05-07T21:24:02.356Z,9.98
2019-05-07T21:26:32.713Z,9.70
2019-05-07T21:29:02.980Z,9.70
2019-05-07T21:31:32.605Z,9.56
2019-05-07T21:34:03.114Z,9.60
2019-05-07T21:36:32.657Z,9.50
2019-05-07T21:39:02.513Z,9.52
2019-05-07T21:41:33.504Z,9.47
2019-05-07T21:44:03.335Z,9.42
2019-05-07T21:46:33.087Z,9.45
2019-05-07T21:49:02.740Z,9.44
2019-05-07T21:51:32.097Z,9.40
2019-05-07T21:54:03.747Z,9.55
2019-05-07T21:56:54.536Z,9.45
2019-05-07T21:59:35.769Z,9.68
2019-05-07T22:02:08.279Z,9.59
2019-05-07T22:04:37.607Z,9.41
2019-05-07T22:07:06.952Z,9.39
2019-05-07T22:09:36.287Z,9.40
2019-05-07T22:12:05.700Z,9.55
2019-05-07T22:14:35.070Z,9.63
2019-05-07T22:17:05.413Z,9.44
2019-05-07T22:19:34.753Z,9.41
2019-05-07T22:22:04.147Z,9.42
2019-05-07T22:24:33.477Z,9.24
2019-05-07T22:27:04.207Z,9.45
2019-05-07T22:29:33.723Z,9.49
2019-05-07T22:32:16.766Z,9.42
2019-05-07T22:34:52.058Z,9.33
2019-05-07T22:37:22.078Z,9.47
2019-05-07T22:39:51.448Z,9.46
2019-05-07T22:42:22.374Z,9.44
2019-05-07T22:44:51.803Z,9.51
2019-05-07T22:47:22.538Z,9.52
2019-05-07T22:49:53.639Z,9.51
2019-05-07T22:52:23.296Z,9.55
2019-05-07T22:54:52.622Z,9.68
2019-05-07T22:57:35.583Z,9.93
2019-05-07T23:00:08.293Z,9.92
2019-05-07T23:02:37.628Z,9.92
2019-05-07T23:05:07.483Z,9.80
2019-05-07T23:07:36.828Z,10.00
2019-05-07T23:10:06.394Z,10.00
2019-05-07T23:12:35.722Z,9.96
2019-05-07T23:15:07.095Z,9.94
2019-05-07T23:17:36.353Z,9.88
2019-05-07T23:20:06.739Z,9.84
2019-05-07T23:22:36.061Z,9.85
2019-05-07T23:25:06.438Z,9.83
2019-05-07T23:27:35.769Z,9.75
2019-05-07T23:30:05.952Z,9.71
2019-05-07T23:32:35.277Z,9.64
2019-05-07T23:35:05.948Z,9.72
2019-05-07T23:37:35.270Z,9.61
2019-05-07T23:40:09.229Z,9.56
2019-05-07T23:42:42.401Z,9.58
2019-05-07T23:45:12.633Z,9.56
2019-05-07T23:47:44.454Z,9.57
2019-05-07T23:50:13.099Z,9.63
2019-05-07T23:52:44.161Z,9.53
2019-05-07T23:55:13.509Z,9.46
2019-05-07T23:57:43.124Z,9.49
